createdAt,value
2023-09-11T00:00:49.590Z,47.59
2023-09-11T00:06:04.042Z,47.57
2023-09-11T00:11:08.027Z,47.46
2023-09-11T00:16:10.159Z,47.77
2023-09-11T00:21:12.568Z,47.24
2023-09-11T00:26:14.705Z,47.59
2023-09-11T00:31:19.229Z,47.60
2023-09-11T00:36:21.408Z,47.39
2023-09-11T00:41:23.627Z,47.43
2023-09-11T00:46:25.980Z,47.45
2023-09-11T00:51:29.108Z,47.90
2023-09-11T00:56:31.817Z,47.77
2023-09-11T01:01:34.054Z,47.71
2023-09-11T01:06:36.256Z,47.44
2023-09-11T01:11:38.653Z,47.59
2023-09-11T01:16:57.740Z,47.23
2023-09-11T01:22:02.489Z,47.36
2023-09-11T01:27:23.848Z,47.35
2023-09-11T01:32:27.031Z,47.68
2023-09-11T01:37:31.366Z,47.13
2023-09-11T01:42:55.312Z,47.07
2023-09-11T01:47:57.935Z,47.17
2023-09-11T01:53:00.602Z,47.25
2023-09-11T01:58:02.955Z,47.48
2023-09-11T02:03:05.283Z,47.03
2023-09-11T02:08:07.373Z,47.30
2023-09-11T02:13:09.798Z,47.60
2023-09-11T02:18:12.050Z,47.61
2023-09-11T02:23:14.152Z,47.45
2023-09-11T02:28:16.330Z,47.84
2023-09-11T02:33:18.444Z,47.85
2023-09-11T02:38:20.794Z,47.61
2023-09-11T02:43:23.073Z,48.06
2023-09-11T02:48:25.566Z,47.83
2023-09-11T02:53:27.806Z,47.69
2023-09-11T02:58:29.907Z,47.76
2023-09-11T03:03:32.725Z,48.50
2023-09-11T03:08:34.968Z,48.20
2023-09-11T03:13:38.119Z,48.12
2023-09-11T03:18:41.418Z,48.53
2023-09-11T03:23:44.214Z,48.29
2023-09-11T03:28:51.454Z,48.51
2023-09-11T03:33:58.107Z,48.20
2023-09-11T03:39:00.859Z,48.71
2023-09-11T03:44:03.073Z,48.60
2023-09-11T03:49:05.435Z,48.85
2023-09-11T03:54:10.365Z,48.83
2023-09-11T03:59:15.025Z,48.26
2023-09-11T04:04:17.854Z,48.43
2023-09-11T04:09:20.129Z,48.40
2023-09-11T04:14:22.261Z,49.06
2023-09-11T04:19:24.579Z,48.42
2023-09-11T04:24:26.914Z,48.85
2023-09-11T04:29:32.598Z,48.73
2023-09-11T04:34:35.442Z,48.84
2023-09-11T04:39:38.272Z,48.53
2023-09-11T04:44:40.767Z,48.59
2023-09-11T04:49:43.004Z,49.05
2023-09-11T04:54:46.011Z,48.70
2023-09-11T04:59:48.240Z,49.22
2023-09-11T05:04:50.494Z,48.73
2023-09-11T05:09:52.992Z,49.20
2023-09-11T05:14:55.330Z,49.05
2023-09-11T05:19:57.611Z,48.92
2023-09-11T05:25:01.284Z,49.19
2023-09-11T05:30:03.572Z,48.98
2023-09-11T05:35:07.777Z,48.49
2023-09-11T05:40:09.855Z,48.74
2023-09-11T05:45:11.768Z,49.78
2023-09-11T05:50:15.911Z,50.00
2023-09-11T05:55:17.916Z,50.16
2023-09-11T06:00:20.789Z,50.35
2023-09-11T06:05:23.612Z,50.48
2023-09-11T06:10:25.720Z,50.76
2023-09-11T06:15:28.970Z,50.97
2023-09-11T06:20:31.242Z,52.55
2023-09-11T06:25:33.660Z,52.45
2023-09-11T06:30:35.776Z,52.64
2023-09-11T06:35:37.867Z,52.41
2023-09-11T06:40:39.915Z,52.12
2023-09-11T06:45:43.182Z,51.14
2023-09-11T06:50:45.231Z,52.44
2023-09-11T06:55:48.211Z,52.57
2023-09-11T07:00:50.611Z,53.12
2023-09-11T07:05:52.902Z,52.74
2023-09-11T07:10:56.836Z,53.73
2023-09-11T07:16:00.190Z,53.81
2023-09-11T07:21:02.369Z,53.64
2023-09-11T07:26:04.508Z,53.24
2023-09-11T07:31:08.081Z,54.12
2023-09-11T07:36:10.342Z,53.96
2023-09-11T07:41:17.598Z,53.16
2023-09-11T07:46:25.878Z,53.26
2023-09-11T07:51:28.498Z,53.18
2023-09-11T07:56:30.975Z,53.02
2023-09-11T08:01:33.057Z,53.52
2023-09-11T08:06:35.132Z,53.52
2023-09-11T08:11:41.129Z,53.42
2023-09-11T08:16:44.497Z,52.88
2023-09-11T08:21:47.334Z,52.99
2023-09-11T08:26:49.409Z,52.54
2023-09-11T08:31:51.466Z,52.43
2023-09-11T08:36:53.995Z,52.30
2023-09-11T08:42:00.311Z,52.04
2023-09-11T08:47:04.780Z,51.42
2023-09-11T08:52:07.306Z,51.84
2023-09-11T08:57:12.301Z,52.32
2023-09-11T09:02:14.649Z,52.27
2023-09-11T09:07:17.499Z,51.99
2023-09-11T09:12:19.703Z,52.04
2023-09-11T09:17:21.755Z,51.55
2023-09-11T09:22:23.792Z,51.35
2023-09-11T09:27:29.548Z,51.46
2023-09-11T09:32:34.110Z,51.12
2023-09-11T09:37:36.904Z,50.99
2023-09-11T09:42:43.274Z,51.12
2023-09-11T09:47:45.515Z,50.79
2023-09-11T09:52:47.664Z,50.54
2023-09-11T09:57:51.188Z,50.63
2023-09-11T10:02:56.695Z,50.72
2023-09-11T10:08:01.466Z,51.08
2023-09-11T10:13:09.077Z,50.52
2023-09-11T10:18:13.085Z,50.26
2023-09-11T10:23:15.498Z,50.26
2023-09-11T10:28:33.116Z,50.11
2023-09-11T10:33:36.308Z,49.85
2023-09-11T10:38:38.946Z,49.62
2023-09-11T10:43:41.581Z,49.38
2023-09-11T10:48:44.022Z,49.50
2023-09-11T10:53:49.402Z,49.26
2023-09-11T10:58:53.872Z,49.16
2023-09-11T11:03:55.991Z,48.83
2023-09-11T11:08:58.943Z,48.57
2023-09-11T11:14:16.631Z,48.83
2023-09-11T11:19:29.327Z,48.82
2023-09-11T11:24:36.295Z,48.71
2023-09-11T11:29:39.099Z,48.48
2023-09-11T11:34:42.812Z,48.60
2023-09-11T11:39:45.012Z,48.41
2023-09-11T11:44:47.714Z,48.47
2023-09-11T11:49:51.018Z,48.37
2023-09-11T11:54:53.191Z,48.31
2023-09-11T11:59:55.357Z,48.21
2023-09-11T12:04:57.911Z,48.38
2023-09-11T12:10:00.233Z,48.12
2023-09-11T12:15:02.614Z,48.27
2023-09-11T12:20:17.217Z,47.68
2023-09-11T12:25:19.849Z,47.90
2023-09-11T12:30:22.294Z,47.96
2023-09-11T12:35:34.076Z,47.83
2023-09-11T12:40:36.135Z,47.83
2023-09-11T12:45:38.637Z,47.79
2023-09-11T12:50:41.530Z,47.73
2023-09-11T12:55:44.035Z,47.73
2023-09-11T13:00:49.502Z,47.51
2023-09-11T13:05:51.792Z,47.30
2023-09-11T13:10:53.879Z,47.45
2023-09-11T13:15:56.073Z,47.47
2023-09-11T13:20:58.191Z,47.41
2023-09-11T13:26:00.345Z,47.12
2023-09-11T13:31:02.414Z,46.92
2023-09-11T13:36:04.612Z,47.52
2023-09-11T13:41:07.110Z,47.15
2023-09-11T13:46:09.858Z,47.23
2023-09-11T13:51:12.030Z,47.03
2023-09-11T13:56:14.376Z,47.62
2023-09-11T14:01:16.426Z,47.33
2023-09-11T14:06:18.569Z,46.74
2023-09-11T14:11:20.644Z,47.34
2023-09-11T14:16:22.785Z,47.31
2023-09-11T14:21:25.605Z,47.33
2023-09-11T14:26:27.928Z,47.34
2023-09-11T14:31:30.115Z,47.49
2023-09-11T14:36:32.275Z,47.38
2023-09-11T14:41:34.668Z,47.53
2023-09-11T14:46:36.753Z,47.50
2023-09-11T14:51:38.824Z,47.31
2023-09-11T14:56:41.810Z,47.45
2023-09-11T15:01:43.947Z,47.36
2023-09-11T15:06:45.982Z,47.62
2023-09-11T15:11:48.137Z,47.35
2023-09-11T15:16:50.240Z,47.48
2023-09-11T15:21:52.730Z,47.59
2023-09-11T15:26:55.106Z,47.46
2023-09-11T15:32:09.530Z,47.64
2023-09-11T15:37:19.207Z,47.46
2023-09-11T15:42:21.350Z,47.43
2023-09-11T15:47:23.452Z,47.45
2023-09-11T15:52:25.494Z,47.36
2023-09-11T15:57:27.623Z,47.43
2023-09-11T16:02:29.822Z,47.60
2023-09-11T16:07:31.910Z,47.64
2023-09-11T16:12:34.044Z,47.52
2023-09-11T16:17:36.315Z,47.42
2023-09-11T16:22:39.686Z,47.51
2023-09-11T16:27:41.920Z,47.55
2023-09-11T16:32:45.191Z,47.59
2023-09-11T16:37:49.122Z,47.56
2023-09-11T16:42:53.003Z,47.61
2023-09-11T16:47:55.019Z,47.33
2023-09-11T16:52:57.332Z,47.39
2023-09-11T16:57:59.486Z,47.58
2023-09-11T17:03:01.964Z,47.58
2023-09-11T17:08:04.792Z,47.71
2023-09-11T17:13:07.280Z,47.68
2023-09-11T17:18:09.481Z,47.58
2023-09-11T17:23:12.819Z,47.54
2023-09-11T17:28:14.966Z,47.64
2023-09-11T17:33:17.272Z,47.45
2023-09-11T17:38:19.688Z,47.72
2023-09-11T17:43:21.977Z,47.66
2023-09-11T17:48:24.137Z,47.24
2023-09-11T17:53:26.300Z,47.59
2023-09-11T17:58:28.660Z,47.40
2023-09-11T18:03:31.631Z,47.78
2023-09-11T18:08:33.832Z,47.67
2023-09-11T18:13:35.993Z,47.65
2023-09-11T18:18:38.119Z,47.50
2023-09-11T18:23:40.243Z,47.55
2023-09-11T18:28:42.711Z,47.63
2023-09-11T18:33:45.190Z,47.63
2023-09-11T18:38:47.349Z,47.64
2023-09-11T18:43:49.442Z,47.46
2023-09-11T18:48:51.836Z,47.55
2023-09-11T18:53:54.039Z,47.51
2023-09-11T18:58:56.063Z,47.65
2023-09-11T19:03:58.320Z,47.58
2023-09-11T19:09:01.946Z,47.52
2023-09-11T19:14:04.306Z,47.52
2023-09-11T19:19:07.673Z,47.74
2023-09-11T19:24:10.034Z,47.69
2023-09-11T19:29:12.206Z,47.50
2023-09-11T19:34:14.280Z,47.73
2023-09-11T19:39:16.791Z,47.75
2023-09-11T19:44:20.048Z,47.70
2023-09-11T19:49:22.152Z,47.76
2023-09-11T19:54:24.210Z,47.70
2023-09-11T19:59:29.116Z,47.83
2023-09-11T20:04:31.269Z,47.73
2023-09-11T20:09:34.570Z,47.81
2023-09-11T20:14:37.519Z,47.86
2023-09-11T20:19:39.620Z,47.95
2023-09-11T20:24:42.349Z,47.77
2023-09-11T20:29:44.804Z,48.04
2023-09-11T20:34:47.861Z,47.64
2023-09-11T20:39:49.946Z,47.56
2023-09-11T20:44:52.055Z,47.14
2023-09-11T20:49:54.223Z,47.75
2023-09-11T20:54:56.421Z,47.37
2023-09-11T20:59:58.534Z,47.40
2023-09-11T21:05:00.616Z,47.03
2023-09-11T21:10:02.665Z,47.64
2023-09-11T21:15:05.181Z,47.52
2023-09-11T21:20:08.269Z,47.24
2023-09-11T21:25:12.546Z,47.32
2023-09-11T21:30:14.697Z,47.05
2023-09-11T21:35:17.141Z,46.89
2023-09-11T21:40:19.476Z,46.80
2023-09-11T21:45:21.573Z,47.03
2023-09-11T21:50:23.631Z,47.01
2023-09-11T21:55:25.762Z,47.51
2023-09-11T22:00:27.961Z,47.25
2023-09-11T22:05:32.258Z,47.15
2023-09-11T22:10:34.538Z,46.97
2023-09-11T22:15:37.556Z,47.06
2023-09-11T22:20:39.667Z,46.82
2023-09-11T22:25:41.762Z,46.58
2023-09-11T22:30:47.826Z,46.71
2023-09-11T22:35:54.444Z,46.75
2023-09-11T22:40:56.696Z,46.51
2023-09-11T22:45:59.216Z,46.74
2023-09-11T22:51:05.010Z,46.76
2023-09-11T22:56:07.261Z,46.35
2023-09-11T23:01:27.504Z,46.49
2023-09-11T23:06:30.542Z,46.60
2023-09-11T23:11:41.140Z,46.71
2023-09-11T23:16:43.310Z,47.40
2023-09-11T23:21:45.318Z,47.43
2023-09-11T23:26:51.628Z,47.12
2023-09-11T23:31:53.906Z,46.97
2023-09-11T23:36:56.549Z,46.96
2023-09-11T23:41:58.655Z,46.90
2023-09-11T23:47:01.886Z,46.68
2023-09-11T23:52:19.484Z,46.75
2023-09-11T23:57:26.416Z,47.15
